Time;durP1;ratioP1;P1;durP2;ratioP2;P2;SDS_P1;SDS_P2;PMS_P1;PMS_P2;Temp;Humidity;BMP_temperature;BMP_pressure;BME280_temperature;BME280_humidity;BME280_pressure;Samples;Min_cycle;Max_cycle;Signal;HPM_P1;HPM_P2
2021/06/02 00:00:44;;;;;;;4.15;1.50;;;17.00;39.20;;;;;;4996433;28;20098;-66
2021/06/02 00:03:14;;;;;;;3.83;1.50;;;16.90;39.00;;;;;;5006931;28;20031;-67
2021/06/02 00:05:40;;;;;;;1.40;1.20;;;16.90;39.40;;;;;;5010399;28;20488;-67
2021/06/02 00:08:10;;;;;;;2.38;1.67;;;16.90;39.50;;;;;;4995856;28;20038;-66
2021/06/02 00:10:36;;;;;;;6.07;1.67;;;16.80;40.00;;;;;;4995707;28;20096;-66
2021/06/02 00:13:02;;;;;;;3.28;1.45;;;16.70;39.80;;;;;;5000057;28;20037;-66
2021/06/02 00:15:28;;;;;;;3.00;1.67;;;16.70;39.90;;;;;;5015829;28;20076;-66
2021/06/02 00:17:55;;;;;;;3.47;1.40;;;16.70;40.10;;;;;;4997605;28;20022;-67
2021/06/02 00:20:21;;;;;;;2.47;1.30;;;16.70;40.00;;;;;;4995899;28;20401;-67
2021/06/02 00:22:47;;;;;;;2.60;1.60;;;16.70;40.00;;;;;;4994699;28;20030;-67
2021/06/02 00:25:13;;;;;;;3.40;1.88;;;16.70;40.30;;;;;;4995934;28;20081;-66
2021/06/02 00:27:41;;;;;;;3.78;1.92;;;16.70;40.10;;;;;;4998542;28;20053;-67
2021/06/02 00:30:10;;;;;;;5.97;2.00;;;16.70;40.00;;;;;;5008623;28;20023;-67
2021/06/02 00:32:37;;;;;;;2.42;1.75;;;16.70;40.20;;;;;;4996855;28;20514;-68
2021/06/02 00:35:05;;;;;;;4.53;1.88;;;16.80;40.20;;;;;;4995758;28;20069;-68
2021/06/02 00:37:31;;;;;;;2.30;1.73;;;16.70;40.10;;;;;;5005125;28;20506;-66
2021/06/02 00:39:58;;;;;;;1.80;1.45;;;16.70;40.20;;;;;;4996031;28;20014;-69
2021/06/02 00:42:32;;;;;;;1.55;1.23;;;16.70;40.30;;;;;;4995687;28;20109;-68
2021/06/02 00:44:59;;;;;;;3.17;1.45;;;16.60;40.30;;;;;;5031728;28;20032;-68
2021/06/02 00:47:26;;;;;;;4.32;1.60;;;16.60;40.20;;;;;;5026561;28;20458;-68
2021/06/02 00:49:52;;;;;;;2.05;1.17;;;16.60;40.30;;;;;;4995359;28;20026;-69
2021/06/02 00:52:18;;;;;;;1.77;1.30;;;16.60;40.20;;;;;;4995473;28;20097;-69
2021/06/02 00:54:44;;;;;;;3.72;1.90;;;16.50;40.30;;;;;;4995177;28;20051;-69
2021/06/02 00:57:15;;;;;;;4.00;1.50;;;16.50;40.40;;;;;;4995229;28;20031;-69
2021/06/02 00:59:56;;;;;;;2.35;1.50;;;16.50;40.60;;;;;;4995089;28;20030;-69
2021/06/02 01:02:23;;;;;;;2.10;1.40;;;16.40;40.60;;;;;;4995376;28;20022;-69
2021/06/02 01:04:51;;;;;;;4.80;1.58;;;16.40;40.50;;;;;;4995738;28;20440;-69
2021/06/02 01:07:17;;;;;;;5.32;1.73;;;16.40;40.50;;;;;;4994513;28;20384;-69
2021/06/02 01:09:48;;;;;;;4.93;1.92;;;16.40;40.60;;;;;;4998496;28;20025;-69
2021/06/02 01:12:21;;;;;;;3.42;1.85;;;16.40;40.50;;;;;;5001652;28;20511;-69
2021/06/02 01:14:47;;;;;;;1.95;1.50;;;16.40;40.50;;;;;;4995172;28;20472;-69
2021/06/02 01:17:17;;;;;;;2.92;1.50;;;16.50;40.50;;;;;;4994986;28;20062;-69
2021/06/02 01:19:43;;;;;;;2.58;1.55;;;16.50;41.10;;;;;;4998774;28;20707;-69
2021/06/02 01:22:10;;;;;;;1.92;1.23;;;16.50;40.50;;;;;;5014198;28;20029;-69
2021/06/02 01:24:37;;;;;;;2.80;1.50;;;16.50;40.40;;;;;;5013275;28;20029;-69
2021/06/02 01:27:06;;;;;;;2.22;1.52;;;16.50;40.50;;;;;;5013841;28;20018;-69
2021/06/02 01:29:34;;;;;;;3.78;1.40;;;16.50;40.40;;;;;;5014110;28;20030;-69
2021/06/02 01:32:27;;;;;;;3.33;1.33;;;16.50;40.40;;;;;;5014416;28;20022;-69
2021/06/02 01:35:21;;;;;;;2.28;1.20;;;16.40;40.40;;;;;;4997658;28;20105;-69
2021/06/02 01:38:02;;;;;;;3.55;1.23;;;16.40;40.60;;;;;;4994561;28;20039;-69
2021/06/02 01:41:05;;;;;;;2.60;1.50;;;16.40;40.60;;;;;;4994702;28;20397;-69
2021/06/02 01:44:08;;;;;;;3.85;1.13;;;16.30;40.70;;;;;;4994594;28;20364;-69
2021/06/02 01:46:52;;;;;;;2.15;1.23;;;16.30;40.80;;;;;;5051373;28;20099;-69
2021/06/02 01:49:45;;;;;;;2.63;1.40;;;16.20;41.10;;;;;;5066574;28;20057;-68
2021/06/02 01:52:46;;;;;;;3.03;1.35;;;16.20;40.90;;;;;;5051437;28;20413;-69
2021/06/02 01:55:27;;;;;;;2.45;1.20;;;16.20;40.90;;;;;;5051216;28;20379;-69
2021/06/02 01:58:11;;;;;;;1.75;1.10;;;16.20;41.00;;;;;;5051064;28;20043;-70
2021/06/02 02:00:55;;;;;;;1.55;1.17;;;16.10;40.90;;;;;;5051124;28;20119;-69
2021/06/02 02:03:48;;;;;;;2.88;1.20;;;16.10;41.20;;;;;;5054796;28;20379;-69
2021/06/02 02:06:32;;;;;;;3.08;1.48;;;16.10;41.10;;;;;;5054241;28;20493;-69
2021/06/02 02:09:06;;;;;;;1.73;1.25;;;16.10;41.00;;;;;;5070241;28;20101;-69
2021/06/02 02:11:33;;;;;;;;;;;16.00;41.10;;;;;;5052218;28;20086;-69
2021/06/02 02:14:36;;;;;;;8.00;1.30;;;16.10;40.50;;;;;;5050904;28;19908;-69
2021/06/02 02:17:29;;;;;;;1.77;1.25;;;16.00;41.30;;;;;;5050878;28;20098;-69
2021/06/02 02:20:06;;;;;;;2.90;1.70;;;16.00;41.50;;;;;;5070637;28;20047;-69
2021/06/02 02:22:59;;;;;;;1.13;1.02;;;16.00;41.40;;;;;;5053594;28;20043;-68
2021/06/02 02:25:35;;;;;;;4.03;1.80;;;16.00;41.50;;;;;;4993798;28;20445;-69
2021/06/02 02:28:28;;;;;;;3.08;1.48;;;15.90;41.70;;;;;;4993704;28;20034;-69
2021/06/02 02:31:05;;;;;;;5.53;1.45;;;15.90;41.60;;;;;;4993351;28;20122;-69
2021/06/02 02:33:57;;;;;;;2.65;1.27;;;15.90;41.60;;;;;;4992474;28;20045;-69
2021/06/02 02:36:42;;;;;;;1.85;1.38;;;15.90;41.40;;;;;;4993712;28;20022;-68
2021/06/02 02:39:59;;;;;;;2.53;1.38;;;15.90;41.60;;;;;;4993466;28;20108;-69
2021/06/02 02:42:49;;;;;;;3.00;1.50;;;15.90;41.70;;;;;;5034095;28;20108;-69
2021/06/02 02:45:52;;;;;;;4.05;1.55;;;15.90;41.60;;;;;;5030461;28;20041;-69
2021/06/02 02:48:38;;;;;;;6.25;1.42;;;15.80;41.60;;;;;;5030578;28;20033;-69
2021/06/02 02:51:27;;;;;;;2.10;1.20;;;15.90;41.50;;;;;;5030439;28;20138;-69
2021/06/02 02:54:04;;;;;;;2.92;1.38;;;15.80;41.70;;;;;;5030127;28;20076;-68
2021/06/02 02:56:41;;;;;;;4.43;1.48;;;15.80;41.90;;;;;;5030869;28;20116;-69
2021/06/02 02:59:22;;;;;;;2.28;1.30;;;15.80;42.20;;;;;;5030310;28;20026;-68
2021/06/02 03:02:11;;;;;;;3.65;1.58;;;15.80;42.00;;;;;;5030357;28;20037;-69
2021/06/02 03:04:44;;;;;;;2.03;1.17;;;15.80;42.10;;;;;;5031680;28;20065;-68
2021/06/02 03:07:11;;;;;;;2.60;1.10;;;15.80;42.20;;;;;;5030459;28;20017;-69
2021/06/02 03:09:39;;;;;;;3.33;1.65;;;15.80;42.10;;;;;;5030202;28;20503;-69
2021/06/02 03:12:21;;;;;;;3.30;1.25;;;15.80;42.50;;;;;;5030096;28;20045;-69
2021/06/02 03:15:07;;;;;;;6.88;2.22;;;15.80;42.50;;;;;;5030131;28;20092;-69
2021/06/02 03:17:39;;;;;;;1.98;1.60;;;15.80;42.40;;;;;;5018934;28;20472;-69
2021/06/02 03:20:25;;;;;;;3.95;1.80;;;15.90;42.40;;;;;;5011410;28;20065;-69
2021/06/02 03:23:09;;;;;;;3.67;1.17;;;16.00;42.30;;;;;;5010933;28;21001;-69
2021/06/02 03:26:06;;;;;;;2.08;1.52;;;16.00;42.00;;;;;;5012558;28;20092;-69
2021/06/02 03:28:47;;;;;;;2.13;1.30;;;16.10;41.90;;;;;;5011728;28;20483;-69
2021/06/02 03:31:35;;;;;;;3.63;1.45;;;16.20;41.80;;;;;;5011923;28;20069;-69
2021/06/02 03:34:09;;;;;;;4.43;2.03;;;16.20;41.50;;;;;;5004493;28;20030;-69
2021/06/02 03:36:54;;;;;;;;;;;16.30;41.50;;;;;;4993096;28;20030;-69
2021/06/02 03:40:05;;;;;;;3.22;1.63;;;16.40;41.20;;;;;;4992742;28;19920;-68
2021/06/02 03:42:48;;;;;;;3.92;1.67;;;16.50;41.20;;;;;;4973067;28;20047;-69
2021/06/02 03:45:43;;;;;;;4.47;2.03;;;16.60;41.40;;;;;;4992465;28;20022;-69
2021/06/02 03:48:08;;;;;;;10.68;2.70;;;16.60;41.40;;;;;;4992626;28;20033;-69
2021/06/02 03:50:59;;;;;;;6.18;2.50;;;16.70;41.50;;;;;;5006724;28;20435;-69
2021/06/02 03:53:31;;;;;;;4.43;2.50;;;16.70;41.50;;;;;;5012150;28;20042;-69
2021/06/02 03:56:21;;;;;;;6.18;2.42;;;16.80;41.70;;;;;;5012197;28;20065;-69
2021/06/02 03:59:03;;;;;;;14.55;3.00;;;16.80;41.60;;;;;;5014483;28;20479;-69
2021/06/02 04:01:32;;;;;;;5.35;2.33;;;16.80;41.60;;;;;;5012145;28;20026;-69
2021/06/02 04:04:19;;;;;;;7.57;3.58;;;16.80;41.80;;;;;;4999991;28;20025;-69
2021/06/02 04:07:08;;;;;;;6.20;2.40;;;16.80;42.00;;;;;;4995279;28;20026;-70
2021/06/02 04:10:05;;;;;;;7.68;3.63;;;16.90;41.90;;;;;;5011690;28;20119;-69
2021/06/02 04:12:50;;;;;;;9.52;2.75;;;16.90;41.90;;;;;;5015372;28;20069;-69
2021/06/02 04:15:16;;;;;;;6.68;2.47;;;16.90;42.00;;;;;;5011930;28;20064;-69
2021/06/02 04:17:47;;;;;;;8.85;3.00;;;17.00;41.70;;;;;;5009502;28;20014;-69
2021/06/02 04:20:17;;;;;;;3.88;2.30;;;17.00;41.40;;;;;;4992128;28;20414;-69
2021/06/02 04:22:46;;;;;;;5.07;2.08;;;17.10;41.30;;;;;;4992195;28;20018;-69
2021/06/02 04:25:15;;;;;;;9.65;2.90;;;17.10;41.20;;;;;;4993077;28;20027;-69
2021/06/02 04:27:44;;;;;;;6.25;2.47;;;17.20;41.90;;;;;;5010375;28;20030;-69
2021/06/02 04:30:12;;;;;;;3.67;2.03;;;17.30;41.10;;;;;;5010140;28;20068;-69
2021/06/02 04:32:40;;;;;;;5.90;2.17;;;17.40;40.90;;;;;;5011663;28;20060;-69
2021/06/02 04:35:09;;;;;;;13.25;1.95;;;17.40;40.80;;;;;;4997465;28;20049;-70
2021/06/02 04:37:36;;;;;;;6.32;2.35;;;17.50;40.70;;;;;;4991834;28;20030;-70
2021/06/02 04:40:07;;;;;;;5.97;2.28;;;17.50;40.70;;;;;;4992175;28;20026;-70
2021/06/02 04:42:37;;;;;;;5.15;2.38;;;17.60;40.70;;;;;;4993670;28;20118;-70
2021/06/02 04:45:06;;;;;;;6.13;2.20;;;17.70;40.70;;;;;;4997022;28;20165;-70
2021/06/02 04:47:33;;;;;;;3.55;1.85;;;17.70;40.70;;;;;;5015746;28;20069;-69
2021/06/02 04:50:02;;;;;;;5.20;2.50;;;17.80;40.10;;;;;;5000211;28;20033;-70
2021/06/02 04:52:53;;;;;;;7.60;1.80;;;17.90;39.90;;;;;;4995209;28;20034;-70
2021/06/02 04:55:26;;;;;;;4.88;2.13;;;17.90;38.70;;;;;;4995490;28;20104;-70
2021/06/02 04:58:20;;;;;;;3.80;2.25;;;18.00;38.70;;;;;;4995466;28;20098;-70
2021/06/02 05:01:36;;;;;;;5.22;1.92;;;18.10;38.50;;;;;;5000795;28;20080;-70
2021/06/02 05:04:30;;;;;;;4.43;2.42;;;18.20;38.20;;;;;;5025259;28;20038;-70
2021/06/02 05:07:41;;;;;;;2.83;1.77;;;18.40;37.90;;;;;;5010829;28;20108;-70
2021/06/02 05:10:35;;;;;;;3.33;1.40;;;18.50;37.50;;;;;;5014865;28;20495;-70
2021/06/02 05:13:24;;;;;;;5.35;2.40;;;18.60;37.40;;;;;;5014763;28;20018;-70
2021/06/02 05:16:15;;;;;;;6.90;4.00;;;18.70;37.60;;;;;;5014399;28;20030;-70
2021/06/02 05:18:44;;;;;;;6.40;3.15;;;18.80;37.60;;;;;;5004201;28;20030;-70
2021/06/02 05:24:41;;;;;;;5.00;2.40;;;18.90;36.70;;;;;;4995996;28;20093;-70
2021/06/02 05:27:23;;;;;;;3.58;1.92;;;19.00;36.70;;;;;;4994776;28;20113;-70
2021/06/02 05:30:19;;;;;;;5.93;2.58;;;19.10;36.70;;;;;;5009569;28;20113;-70
2021/06/02 05:33:22;;;;;;;8.27;2.20;;;19.10;36.30;;;;;;4994623;28;20019;-70
2021/06/02 05:36:26;;;;;;;4.45;2.30;;;19.20;36.60;;;;;;5009635;28;20468;-70
2021/06/02 05:39:12;;;;;;;4.35;2.00;;;19.30;35.70;;;;;;4994512;28;20027;-70
2021/06/02 05:42:15;;;;;;;8.45;1.98;;;19.40;35.70;;;;;;4998128;28;20031;-70
2021/06/02 05:45:02;;;;;;;9.65;4.72;;;19.50;35.30;;;;;;4994017;28;20049;-70
2021/06/02 05:47:56;;;;;;;2.85;2.00;;;19.60;35.40;;;;;;4995342;28;20026;-70
2021/06/02 05:50:51;;;;;;;6.40;2.58;;;19.60;34.10;;;;;;5013593;28;20364;-70
2021/06/02 05:53:16;;;;;;;;;;;19.70;34.40;;;;;;5013991;28;20176;-70
2021/06/02 05:56:03;;;;;;;3.78;2.10;;;19.80;35.10;;;;;;5012828;28;20007;-70
2021/06/02 05:59:07;;;;;;;4.75;3.00;;;19.90;34.10;;;;;;5009817;28;20058;-70
2021/06/02 06:01:32;;;;;;;13.00;4.65;;;20.00;34.20;;;;;;5008632;28;20129;-70
2021/06/02 06:04:30;;;;;;;6.07;3.22;;;20.10;34.20;;;;;;5007786;28;20117;-70
2021/06/02 06:07:38;;;;;;;3.42;1.60;;;20.20;34.10;;;;;;5004143;28;20456;-70
2021/06/02 06:10:19;;;;;;;7.75;2.35;;;20.30;33.80;;;;;;5027800;28;20372;-70
2021/06/02 06:13:25;;;;;;;3.83;1.75;;;20.40;33.70;;;;;;5013840;28;20022;-70
2021/06/02 06:16:03;;;;;;;3.08;1.75;;;20.50;34.00;;;;;;5020981;28;20034;-70
2021/06/02 06:18:40;;;;;;;10.35;2.00;;;20.60;33.50;;;;;;5003075;28;20113;-70
2021/06/02 06:21:27;;;;;;;6.53;3.47;;;20.70;33.10;;;;;;5008437;28;20030;-70
2021/06/02 06:23:56;;;;;;;3.45;2.05;;;20.70;33.50;;;;;;4993607;28;20022;-70
2021/06/02 06:26:47;;;;;;;2.75;1.73;;;20.90;33.20;;;;;;4993458;28;20114;-69
2021/06/02 06:29:25;;;;;;;10.18;2.30;;;21.00;32.80;;;;;;5007429;28;20025;-70
2021/06/02 06:31:52;;;;;;;3.95;2.20;;;21.10;32.60;;;;;;5013267;28;20112;-70
2021/06/02 06:34:22;;;;;;;5.45;3.08;;;21.10;32.70;;;;;;5010804;28;20015;-70
2021/06/02 06:36:50;;;;;;;4.35;2.70;;;21.20;32.70;;;;;;5005952;28;20033;-70
2021/06/02 06:39:47;;;;;;;5.30;3.17;;;21.30;32.70;;;;;;5012626;28;20545;-70
2021/06/02 06:42:15;;;;;;;5.68;2.33;;;21.40;32.90;;;;;;5013883;28;20062;-69
2021/06/02 06:44:44;;;;;;;9.52;3.90;;;21.50;32.30;;;;;;5013672;28;20030;-70
2021/06/02 06:47:14;;;;;;;6.45;2.90;;;21.50;32.70;;;;;;5013755;28;20018;-70
2021/06/02 06:49:44;;;;;;;3.80;2.10;;;21.60;32.20;;;;;;5010715;28;20116;-70
2021/06/02 06:52:10;;;;;;;5.60;1.80;;;21.70;32.30;;;;;;5013889;28;20022;-70
2021/06/02 06:54:38;;;;;;;3.30;2.38;;;21.80;31.90;;;;;;5013833;28;20516;-69
2021/06/02 06:57:04;;;;;;;7.03;3.03;;;21.90;32.60;;;;;;5007369;28;20026;-70
2021/06/02 06:59:30;;;;;;;6.22;2.83;;;21.90;32.00;;;;;;4994227;28;20030;-69
2021/06/02 07:01:57;;;;;;;3.97;2.50;;;22.10;32.10;;;;;;4994594;28;20058;-70
2021/06/02 07:04:23;;;;;;;6.47;2.55;;;22.10;31.80;;;;;;4993552;28;20026;-70
2021/06/02 07:06:50;;;;;;;8.35;3.53;;;22.20;32.10;;;;;;4994158;28;20026;-70
2021/06/02 07:09:16;;;;;;;6.03;3.75;;;22.30;31.50;;;;;;4994054;28;20022;-70
2021/06/02 07:11:44;;;;;;;8.35;3.75;;;22.40;31.90;;;;;;4994116;28;20073;-70
2021/06/02 07:14:15;;;;;;;9.00;3.00;;;22.40;31.60;;;;;;5002208;28;20082;-70
2021/06/02 07:16:41;;;;;;;5.25;4.00;;;22.40;31.40;;;;;;4998201;28;20042;-70
2021/06/02 07:19:08;;;;;;;7.07;3.30;;;22.50;31.70;;;;;;4993919;28;20492;-69
2021/06/02 07:21:36;;;;;;;9.32;3.33;;;22.50;31.70;;;;;;4993826;28;20052;-70
2021/06/02 07:24:03;;;;;;;8.90;3.22;;;22.60;30.80;;;;;;4993666;28;20037;-70
2021/06/02 07:26:29;;;;;;;11.45;4.80;;;22.60;31.20;;;;;;4993787;28;20384;-70
2021/06/02 07:28:56;;;;;;;8.90;2.58;;;22.60;31.60;;;;;;4993756;28;20022;-70
2021/06/02 07:31:21;;;;;;;7.72;2.53;;;22.70;30.90;;;;;;4996646;28;20078;-70
2021/06/02 07:33:47;;;;;;;6.05;2.30;;;22.70;30.70;;;;;;5008790;28;20053;-70
2021/06/02 07:36:13;;;;;;;6.65;2.35;;;22.70;30.90;;;;;;5003473;28;20114;-69
2021/06/02 07:38:40;;;;;;;7.63;2.95;;;22.80;31.20;;;;;;4993680;28;20468;-69
2021/06/02 07:41:07;;;;;;;7.32;3.40;;;22.80;30.60;;;;;;4993515;28;20030;-69
2021/06/02 07:43:33;;;;;;;9.57;3.10;;;22.80;31.00;;;;;;4992115;28;20163;-69
2021/06/02 07:45:59;;;;;;;6.15;3.40;;;22.90;30.70;;;;;;4993928;28;20030;-69
2021/06/02 07:48:25;;;;;;;9.98;2.72;;;22.90;30.60;;;;;;5011049;28;20045;-69
2021/06/02 07:50:51;;;;;;;6.88;2.58;;;23.00;30.70;;;;;;5012619;28;20065;-69
2021/06/02 07:53:17;;;;;;;25.83;3.33;;;22.90;30.40;;;;;;5012460;28;20042;-69
2021/06/02 07:55:42;;;;;;;10.20;2.30;;;22.90;30.30;;;;;;5013015;28;20026;-69
2021/06/02 07:58:08;;;;;;;2.55;2.00;;;23.00;30.50;;;;;;5008919;28;20026;-69
2021/06/02 08:00:34;;;;;;;6.18;3.22;;;23.00;30.80;;;;;;5010920;28;20490;-69
2021/06/02 08:03:00;;;;;;;4.25;1.98;;;23.00;30.60;;;;;;4990640;28;20408;-69
2021/06/02 08:05:26;;;;;;;3.72;2.17;;;23.00;30.30;;;;;;4990850;28;20034;-69
2021/06/02 08:07:52;;;;;;;3.78;2.08;;;23.10;30.60;;;;;;5007639;28;20026;-69
2021/06/02 08:10:18;;;;;;;9.20;3.17;;;23.10;30.60;;;;;;5006583;28;20043;-69
2021/06/02 08:12:47;;;;;;;7.18;2.22;;;23.10;30.50;;;;;;5010474;28;20449;-69
2021/06/02 08:15:14;;;;;;;4.47;1.90;;;23.20;30.40;;;;;;5007282;28;20113;-69
2021/06/02 08:17:41;;;;;;;3.33;2.30;;;23.20;29.90;;;;;;5014780;28;20083;-69
2021/06/02 08:20:09;;;;;;;7.85;2.13;;;23.30;30.10;;;;;;5013127;28;20056;-68
2021/06/02 08:22:35;;;;;;;3.55;2.13;;;23.30;30.00;;;;;;5011583;28;20121;-69
2021/06/02 08:25:11;;;;;;;8.82;1.75;;;23.40;30.10;;;;;;4999003;28;20085;-69
2021/06/02 08:27:37;;;;;;;4.78;2.28;;;23.40;29.60;;;;;;5012634;28;20068;-69
2021/06/02 08:30:08;;;;;;;3.78;1.75;;;23.40;30.00;;;;;;5016222;28;20065;-69
2021/06/02 08:32:34;;;;;;;3.70;1.63;;;23.50;29.70;;;;;;5017860;28;20029;-69
2021/06/02 08:35:00;;;;;;;6.90;1.92;;;23.60;29.80;;;;;;5003053;28;20026;-69
2021/06/02 08:37:26;;;;;;;10.55;2.30;;;23.60;29.80;;;;;;5014021;28;20025;-69
2021/06/02 08:39:52;;;;;;;6.22;1.85;;;23.70;29.80;;;;;;5003636;28;20100;-69
2021/06/02 08:42:18;;;;;;;3.55;1.85;;;23.70;29.70;;;;;;5010979;28;20026;-69
2021/06/02 08:44:44;;;;;;;4.43;2.10;;;23.70;29.70;;;;;;5008986;28;20029;-69
2021/06/02 08:47:10;;;;;;;6.00;1.98;;;23.80;29.60;;;;;;5015184;28;20083;-68
2021/06/02 08:49:36;;;;;;;4.40;1.80;;;23.90;29.40;;;;;;5010707;28;20034;-69
2021/06/02 08:52:05;;;;;;;3.53;1.60;;;23.90;29.20;;;;;;5004813;28;20076;-71
2021/06/02 08:54:31;;;;;;;6.03;1.85;;;24.00;29.50;;;;;;5009921;28;20038;-71
2021/06/02 08:57:00;;;;;;;5.40;3.17;;;24.00;29.30;;;;;;4996979;28;20071;-71
2021/06/02 08:59:26;;;;;;;8.40;2.17;;;24.10;29.10;;;;;;5019445;28;20033;-71
2021/06/02 09:01:52;;;;;;;3.22;2.17;;;24.20;29.10;;;;;;5006247;28;20026;-70
2021/06/02 09:04:17;;;;;;;3.67;1.90;;;24.20;29.10;;;;;;5009842;28;20581;-71
2021/06/02 09:06:46;;;;;;;3.28;1.70;;;24.30;29.00;;;;;;5007555;28;20026;-71
2021/06/02 09:09:16;;;;;;;4.40;2.20;;;24.40;28.80;;;;;;5006408;28;20022;-67
2021/06/02 09:11:45;;;;;;;6.03;1.80;;;24.50;28.80;;;;;;5011415;28;20049;-67
2021/06/02 09:14:43;;;;;;;8.52;2.00;;;24.50;28.20;;;;;;5009785;28;20026;-68
2021/06/02 09:17:15;;;;;;;5.05;2.55;;;24.60;28.50;;;;;;5041562;28;20045;-68
2021/06/02 09:19:47;;;;;;;8.10;2.40;;;24.70;28.40;;;;;;5052814;28;20394;-68
2021/06/02 09:22:21;;;;;;;5.88;2.50;;;24.80;28.70;;;;;;5054590;28;20035;-68
2021/06/02 09:25:01;;;;;;;3.00;2.17;;;24.90;28.50;;;;;;5061388;28;20427;-68
2021/06/02 09:27:50;;;;;;;6.85;2.70;;;25.00;28.60;;;;;;5060182;28;20522;-68
2021/06/02 09:30:25;;;;;;;7.65;2.35;;;25.10;28.30;;;;;;5034687;28;20028;-67
2021/06/02 09:32:56;;;;;;;3.95;2.05;;;25.20;28.30;;;;;;5053356;28;20033;-68
2021/06/02 09:35:37;;;;;;;2.63;1.80;;;25.30;28.30;;;;;;5072423;28;20046;-68
2021/06/02 09:38:05;;;;;;;12.23;2.38;;;25.40;28.40;;;;;;5071417;28;20116;-68
2021/06/02 09:40:38;;;;;;;3.95;1.67;;;25.50;27.90;;;;;;5055937;28;20037;-68
2021/06/02 09:43:05;;;;;;;3.60;2.00;;;25.70;28.00;;;;;;5072926;28;20025;-68
2021/06/02 09:45:33;;;;;;;5.50;2.25;;;25.70;28.10;;;;;;5072662;28;20067;-68
2021/06/02 09:48:01;;;;;;;5.43;1.88;;;25.90;27.80;;;;;;5072652;28;20033;-68
2021/06/02 09:50:32;;;;;;;6.10;2.20;;;26.00;27.50;;;;;;5072544;28;20103;-68
2021/06/02 09:53:01;;;;;;;9.55;2.63;;;26.10;27.90;;;;;;5049439;28;20045;-68
2021/06/02 09:55:35;;;;;;;3.17;1.95;;;26.30;27.60;;;;;;5034829;28;20018;-68
2021/06/02 09:58:01;;;;;;;6.95;3.00;;;26.40;27.50;;;;;;5033748;28;20018;-68
2021/06/02 10:00:28;;;;;;;7.28;2.10;;;26.60;27.20;;;;;;4995607;28;20388;-68
2021/06/02 10:03:27;;;;;;;5.47;2.65;;;26.70;27.00;;;;;;5010120;28;20036;-68
2021/06/02 10:05:54;;;;;;;13.38;3.10;;;26.90;27.20;;;;;;4995114;28;20045;-68
2021/06/02 10:08:30;;;;;;;4.75;2.67;;;27.10;26.40;;;;;;4995259;28;20030;-68
2021/06/02 10:10:57;;;;;;;9.15;2.50;;;27.30;26.40;;;;;;4995173;28;20019;-68
2021/06/02 10:13:27;;;;;;;5.32;2.78;;;27.50;26.50;;;;;;4994920;28;20388;-68
2021/06/02 10:15:53;;;;;;;7.85;2.38;;;27.70;26.10;;;;;;4995004;28;20029;-68
2021/06/02 10:18:28;;;;;;;13.23;2.00;;;27.80;25.60;;;;;;4994635;28;20546;-68
2021/06/02 10:21:09;;;;;;;6.35;2.75;;;27.90;25.30;;;;;;4994615;28;20033;-67
2021/06/02 10:23:40;;;;;;;7.45;2.13;;;28.10;25.50;;;;;;4994693;28;20558;-68
2021/06/02 10:26:07;;;;;;;2.58;1.70;;;28.10;25.10;;;;;;4994877;28;20046;-68
2021/06/02 10:28:33;;;;;;;4.50;2.22;;;28.40;25.20;;;;;;4993545;28;20030;-68
2021/06/02 10:31:04;;;;;;;4.20;2.13;;;28.50;24.80;;;;;;4997354;28;20034;-68
2021/06/02 10:33:30;;;;;;;5.53;2.72;;;28.70;24.80;;;;;;5014388;28;20018;-68
2021/06/02 10:35:57;;;;;;;4.32;2.10;;;28.80;24.70;;;;;;5014233;28;20076;-68
2021/06/02 10:38:24;;;;;;;5.53;1.75;;;29.00;24.30;;;;;;5013767;28;20030;-68
2021/06/02 10:40:51;;;;;;;5.55;1.92;;;29.20;24.50;;;;;;5011672;28;20038;-68
2021/06/02 10:43:21;;;;;;;4.95;1.60;;;29.40;24.20;;;;;;5013991;28;20040;-68
2021/06/02 10:46:07;;;;;;;7.40;1.73;;;29.60;23.80;;;;;;5014194;28;20026;-68
2021/06/02 10:48:46;;;;;;;3.22;1.75;;;29.80;24.20;;;;;;5014094;28;20387;-68
2021/06/02 10:51:36;;;;;;;2.47;1.67;;;30.00;23.90;;;;;;5014115;28;20075;-68
2021/06/02 10:54:17;;;;;;;3.10;1.80;;;30.20;22.80;;;;;;5013579;28;20388;-68
2021/06/02 10:57:03;;;;;;;2.67;1.50;;;30.30;22.90;;;;;;5011355;28;20025;-68
2021/06/02 10:59:31;;;;;;;7.65;2.00;;;30.40;23.10;;;;;;4993032;28;20381;-68
2021/06/02 11:02:04;;;;;;;3.42;1.98;;;30.50;22.80;;;;;;4994460;28;20037;-68
2021/06/02 11:04:31;;;;;;;10.15;2.55;;;30.60;22.70;;;;;;4994073;28;20038;-68
2021/06/02 11:07:15;;;;;;;3.25;1.73;;;30.70;22.30;;;;;;4994106;28;20057;-68
2021/06/02 11:10:02;;;;;;;4.00;1.58;;;30.70;22.90;;;;;;4994035;28;20029;-68
2021/06/02 11:12:49;;;;;;;2.08;1.30;;;30.80;22.00;;;;;;4994203;28;20045;-68
2021/06/02 11:15:35;;;;;;;2.40;1.38;;;30.90;22.00;;;;;;4994083;28;20034;-68
2021/06/02 11:18:10;;;;;;;6.32;2.15;;;30.90;22.00;;;;;;4993983;28;20034;-68
2021/06/02 11:21:00;;;;;;;3.58;1.60;;;30.90;21.90;;;;;;4993902;28;20076;-68
2021/06/02 11:23:32;;;;;;;1.65;1.20;;;31.00;22.10;;;;;;4994024;28;20101;-68
2021/06/02 11:26:21;;;;;;;3.75;1.50;;;31.10;21.80;;;;;;4993930;28;20543;-68
2021/06/02 11:28:48;;;;;;;4.32;1.55;;;31.30;22.10;;;;;;4993890;28;20031;-68
2021/06/02 11:31:27;;;;;;;2.17;1.60;;;31.40;21.80;;;;;;4997711;28;20411;-68
2021/06/02 11:34:25;;;;;;;2.65;1.50;;;31.60;21.70;;;;;;5013356;28;20045;-68
2021/06/02 11:37:02;;;;;;;3.25;1.55;;;31.70;21.60;;;;;;5012148;28;20026;-68
2021/06/02 11:39:29;;;;;;;2.83;1.67;;;31.80;21.30;;;;;;5013032;28;20026;-68
2021/06/02 11:41:58;;;;;;;6.68;1.60;;;31.90;20.80;;;;;;5011837;28;20109;-68
2021/06/02 11:44:28;;;;;;;3.60;1.58;;;31.90;20.60;;;;;;5012975;28;20049;-69
2021/06/02 11:46:54;;;;;;;3.22;1.95;;;31.80;20.30;;;;;;5011710;28;20044;-68
2021/06/02 11:49:30;;;;;;;2.35;1.67;;;31.80;20.70;;;;;;5012977;28;20180;-68
2021/06/02 11:52:05;;;;;;;3.13;1.25;;;31.80;20.80;;;;;;5012723;28;20041;-68
2021/06/02 11:54:58;;;;;;;4.97;1.80;;;31.80;20.90;;;;;;5012794;28;20049;-68
2021/06/02 11:57:32;;;;;;;3.00;1.75;;;31.80;21.10;;;;;;4994749;28;20058;-69
2021/06/02 12:00:00;;;;;;;3.78;1.83;;;31.80;20.80;;;;;;4993152;28;20026;-69
2021/06/02 12:02:26;;;;;;;6.47;1.75;;;31.90;20.40;;;;;;5005130;28;20034;-69
2021/06/02 12:04:52;;;;;;;2.15;1.60;;;31.90;20.70;;;;;;5012809;28;20129;-68
2021/06/02 12:07:26;;;;;;;2.55;1.40;;;32.00;20.80;;;;;;5011749;28;20587;-68
2021/06/02 12:09:56;;;;;;;5.95;1.90;;;32.00;20.80;;;;;;5012614;28;20043;-68
2021/06/02 12:12:24;;;;;;;1.92;1.60;;;32.20;21.00;;;;;;5013034;28;20044;-68
2021/06/02 12:14:53;;;;;;;4.85;1.73;;;32.30;20.60;;;;;;5012890;28;20022;-69
2021/06/02 12:17:25;;;;;;;3.92;1.90;;;32.30;20.20;;;;;;5012966;28;20018;-68
2021/06/02 12:19:51;;;;;;;3.33;1.67;;;32.30;20.30;;;;;;5013006;28;20480;-68
2021/06/02 12:22:21;;;;;;;3.33;1.88;;;32.30;19.80;;;;;;5011542;28;20120;-68
2021/06/02 12:25:09;;;;;;;12.13;1.77;;;32.30;20.20;;;;;;5012709;28;20080;-69
2021/06/02 12:27:46;;;;;;;10.85;2.13;;;32.30;20.80;;;;;;5012887;28;20388;-68
2021/06/02 12:30:31;;;;;;;6.07;1.73;;;32.30;20.70;;;;;;5012760;28;20361;-68
2021/06/02 12:33:07;;;;;;;2.58;1.77;;;32.40;21.10;;;;;;4992947;28;20050;-68
2021/06/02 12:35:40;;;;;;;6.30;2.13;;;32.50;20.70;;;;;;4993094;28;20472;-69
2021/06/02 12:38:11;;;;;;;2.65;1.95;;;32.50;20.50;;;;;;4993156;28;20476;-68
2021/06/02 12:40:49;;;;;;;2.38;1.60;;;32.60;20.40;;;;;;4993030;28;20026;-68
2021/06/02 12:43:24;;;;;;;2.38;1.75;;;32.60;20.30;;;;;;4992959;28;20026;-68
2021/06/02 12:45:52;;;;;;;3.25;1.73;;;32.60;20.30;;;;;;4992691;28;20550;-68
2021/06/02 12:48:33;;;;;;;3.95;1.77;;;32.50;20.30;;;;;;4992806;28;20077;-68
2021/06/02 12:50:59;;;;;;;4.32;1.88;;;32.40;20.50;;;;;;4992936;28;20369;-69
2021/06/02 12:53:36;;;;;;;4.50;1.60;;;32.30;20.30;;;;;;4992841;28;20047;-69
2021/06/02 12:56:02;;;;;;;3.05;1.90;;;32.30;20.30;;;;;;4992816;28;20026;-67
2021/06/02 12:58:31;;;;;;;7.03;1.98;;;32.10;20.20;;;;;;4992927;28;20098;-69
2021/06/02 13:01:02;;;;;;;5.63;1.77;;;32.00;20.20;;;;;;4994898;28;20022;-67
2021/06/02 13:03:28;;;;;;;6.82;1.85;;;31.80;20.30;;;;;;5013589;28;20034;-67
2021/06/02 13:05:55;;;;;;;3.00;1.50;;;31.70;20.40;;;;;;5015930;28;20064;-67
2021/06/02 13:08:25;;;;;;;1.95;1.63;;;31.60;20.80;;;;;;5015948;28;20032;-67
2021/06/02 13:10:51;;;;;;;3.85;1.90;;;31.60;20.90;;;;;;5015921;28;20117;-68
2021/06/02 13:13:17;;;;;;;5.55;1.70;;;31.60;20.80;;;;;;5015915;28;20101;-69
2021/06/02 13:15:45;;;;;;;5.22;2.20;;;31.50;20.70;;;;;;5015527;28;20535;-68
2021/06/02 13:18:28;;;;;;;3.97;1.75;;;31.50;20.70;;;;;;5014171;28;20025;-70
2021/06/02 13:20:56;;;;;;;2.33;1.70;;;31.60;20.80;;;;;;5015366;28;20041;-68
2021/06/02 13:23:30;;;;;;;6.18;1.80;;;31.60;20.50;;;;;;5015404;28;20034;-68
2021/06/02 13:26:05;;;;;;;3.47;2.20;;;31.80;20.60;;;;;;5015271;28;20030;-68
2021/06/02 13:28:32;;;;;;;7.15;1.90;;;32.00;20.60;;;;;;5015204;28;20466;-68
2021/06/02 13:31:02;;;;;;;5.70;2.05;;;32.30;20.40;;;;;;5010688;28;20060;-68
2021/06/02 13:33:42;;;;;;;6.32;1.75;;;32.70;19.80;;;;;;4995738;28;20054;-68